Terminal Aerodrome Forecast
Issued by NWS Duluth, MN

Home | Current Version | Previous Version | Text Only | Print | Product List | Glossary On
Versions: 1 2 3 4 5 6 7 8 9 10 11 12 13 14 15 16 17 18 19
990
FTUS43 KDLH 282334
TAFDLH
TAF
KDLH 282334Z 2900/2924 12007KT P6SM SCT050
     FM290600 14007KT P6SM VCSH SCT035 BKN060
     FM290800 15006KT 5SM -SHRA VCTS BKN035CB OVC060
      TEMPO 2910/2913 2SM TSRA BR BKN012CB OVC030
     FM291400 18010KT P6SM SCT040 BKN100
     FM291800 21011KT P6SM VCTS SCT040CB BKN150
     FM292200 24010KT P6SM BKN150=

USA.gov is the U.S. government's official web portal to all federal, state and local government web resources and services.